Terminal Aerodrome Forecast
Issued by NWS

Home | Current Version | Previous Version | Graphics & Text | Print | Product List | Glossary On
Versions: 1 2 3 4 5 6 7 8 9 10 11 12 13 14 15
583
FTUS42 KMHX 221555 AAA
TAFOAJ
TAF AMD
KOAJ 221555Z 2216/2312 17007KT P6SM VCSH BKN025
     FM221900 17007KT P6SM BKN050
     FM230900 21004KT 5SM BR SCT020
      AMD LTD TO CLD VIS AND WIND=

USA.gov is the U.S. government's official web portal to all federal, state and local government web resources and services.